^^
Datos históricos de la estación: Murcia-Puente Tocinos
Diario Informe para Agosto 18, 2019 Unidades:  Ingés    Métrico   Ambas
Diario Semanal Mensual Anual
  Máxima: Mínima: Promedio:
Temperatura: 63.1 °F 49.6 °F 55.8 °F
Punto de rocio: 44.8 °F 33.4 °F 40.5 °F
Humedad: 79% 33.6% 58%
Velocidad viento: 12.3mph 1.4mph 6mph
Racha viento: 26.5mph - -
Viento- - SO
Presión: 30.1 in 29.9 in -
Precipitación: 0 in    
 
 
Tabla de datos para Agosto 18, 2019
Hora Temperatura Punto de rocio Presión Viento Velocidad viento Racha viento Humedad Intensidad lluvia(por hora) Nubes
00:04 58.6 °F 44.4 °F 29.9 in OSO 6.4 mph 15 mph 59% 0 in
00:09 58.8 °F 44.4 °F 29.9 in OSO 6.4 mph 15 mph 58.7% 0 in
00:14 58.8 °F 44.1 °F 29.9 in OSO 6.4 mph 14 mph 58% 0 in
00:19 58.6 °F 44.2 °F 29.9 in SO 6.4 mph 11.5 mph 58.5% 0 in
00:24 58.6 °F 44.2 °F 29.9 in SO 6.3 mph 12.5 mph 59% 0 in
00:29 58.3 °F 44.1 °F 29.9 in OSO 6.2 mph 13.8 mph 59% 0 in
00:34 58.1 °F 43.9 °F 29.9 in SO 6.8 mph 14 mph 59% 0 in
00:39 57.9 °F 44.1 °F 29.9 in OSO 7.4 mph 13 mph 59.8% 0 in
00:44 57.9 °F 44.1 °F 29.9 in OSO 6.6 mph 12 mph 60% 0 in
00:49 57.7 °F 43.9 °F 29.9 in OSO 5.9 mph 11.5 mph 60% 0 in
00:54 57.7 °F 43.9 °F 29.9 in SO 5.9 mph 12.7 mph 60% 0 in
00:59 57.6 °F 43.9 °F 29.9 in SSO 5.9 mph 13 mph 60% 0 in
01:04 57.6 °F 43.9 °F 29.9 in OSO 5 mph 9 mph 60% 0 in
01:09 57.6 °F 43.7 °F 29.9 in Sur 4.3 mph 6 mph 60% 0 in
01:14 57.4 °F 43.9 °F 29.9 in SE 3.7 mph 5.4 mph 60.8% 0 in
01:19 57 °F 43.7 °F 29.9 in ENE 3.1 mph 6 mph 61% 0 in
01:24 56.8 °F 43.9 °F 29.9 in ESE 2.7 mph 6 mph 61.9% 0 in
01:29 56.5 °F 43.9 °F 29.9 in ESE 2.4 mph 6 mph 62.7% 0 in
01:34 56.1 °F 43.9 °F 29.9 in ESE 2.2 mph 4 mph 63% 0 in
01:39 56.1 °F 43.7 °F 29.9 in SSE 2 mph 5.2 mph 63% 0 in
01:44 56.1 °F 43.7 °F 29.9 in SO 2.5 mph 8.5 mph 63% 0 in
01:49 56.5 °F 43.5 °F 29.9 in SO 2.9 mph 9.2 mph 62% 0 in
01:54 56.5 °F 43.5 °F 29.9 in OSO 3.8 mph 9 mph 62% 0 in
01:59 56.5 °F 43.5 °F 29.9 in OSO 4.7 mph 8 mph 62% 0 in
02:04 56.1 °F 43.3 °F 29.9 in OSO 4.3 mph 6.9 mph 62% 0 in
02:09 56.1 °F 43.3 °F 29.9 in OSO 4 mph 7 mph 62.2% 0 in
02:14 55.9 °F 43.5 °F 29.9 in OSO 3.8 mph 9.7 mph 63% 0 in
02:19 55.9 °F 43.5 °F 29.9 in OSO 3.6 mph 10 mph 63% 0 in
02:24 55.9 °F 43.5 °F 29.9 in Oeste 3.9 mph 11.5 mph 62.8% 0 in
02:29 55.8 °F 43.3 °F 29.9 in Oeste 4.3 mph 12 mph 63% 0 in
02:34 55.6 °F 43.2 °F 29.9 in Oeste 4.8 mph 8.5 mph 63% 0 in
02:39 55.6 °F 43.2 °F 29.9 in OSO 5.2 mph 10.4 mph 63% 0 in
02:44 55.2 °F 42.8 °F 29.9 in OSO 4.9 mph 10.4 mph 63% 0 in
02:49 55.2 °F 42.8 °F 29.9 in Oeste 4.7 mph 10.4 mph 63% 0 in
02:54 55.2 °F 42.8 °F 29.9 in Oeste 5.1 mph 10.4 mph 63% 0 in
02:59 55 °F 42.8 °F 29.9 in ONO 5.4 mph 11.5 mph 63% 0 in
03:04 55.2 °F 42.8 °F 29.9 in Oeste 5.7 mph 12 mph 63% 0 in
03:09 55 °F 42.8 °F 29.9 in Oeste 5.9 mph 10 mph 63% 0 in
03:14 55 °F 42.6 °F 29.9 in Oeste 5.3 mph 8 mph 63% 0 in
03:19 55 °F 42.6 °F 29.9 in OSO 4.7 mph 6.2 mph 63% 0 in
03:24 55 °F 42.6 °F 30 in Oeste 3.9 mph 6 mph 63% 0 in
03:29 54.9 °F 42.4 °F 30 in OSO 3.1 mph 6.9 mph 63% 0 in
03:34 54.9 °F 42.4 °F 30 in SO 3.1 mph 7 mph 63% 0 in
03:39 54.9 °F 42.4 °F 30 in OSO 3.1 mph 8.1 mph 63% 0 in
03:44 54.9 °F 42.4 °F 30 in SO 3.7 mph 9.2 mph 63% 0 in
03:49 54.9 °F 42.4 °F 30 in SO 4.3 mph 9 mph 63.2% 0 in
03:54 54.5 °F 42.6 °F 30 in SO 4.3 mph 8.1 mph 64% 0 in
03:59 54.3 °F 42.3 °F 30 in SO 4.3 mph 8.5 mph 64% 0 in
04:04 54.1 °F 42.3 °F 30 in SO 4.9 mph 11.8 mph 64% 0 in
04:09 54.1 °F 42.3 °F 30 in SO 5.4 mph 12 mph 64% 0 in
04:14 54.1 °F 42.3 °F 30 in SO 5.7 mph 10 mph 64% 0 in
04:19 54 °F 42.3 °F 30 in SO 5.9 mph 9.7 mph 64.4% 0 in
04:24 54 °F 42.1 °F 30 in SO 5.7 mph 10 mph 64% 0 in
04:29 53.8 °F 42.3 °F 30 in SO 5.4 mph 8.5 mph 64.8% 0 in
04:34 53.8 °F 42.3 °F 30 in SSO 5.3 mph 9 mph 65% 0 in
04:39 53.6 °F 42.1 °F 30 in SO 5.2 mph 10.4 mph 65% 0 in
04:44 53.6 °F 42.1 °F 30 in SO 5.2 mph 10 mph 65% 0 in
04:49 53.4 °F 41.9 °F 30 in SO 5.2 mph 9 mph 65% 0 in
04:54 53.4 °F 41.7 °F 30 in SO 5.2 mph 8.1 mph 64.5% 0 in
04:59 53.4 °F 41.5 °F 30 in SO 5.2 mph 11.5 mph 64% 0 in
05:04 53.4 °F 41.7 °F 30 in SO 5.2 mph 12 mph 64.4% 0 in
05:09 53.2 °F 41.7 °F 30 in SSO 5.2 mph 11.4 mph 65% 0 in
05:14 53.2 °F 41.7 °F 30 in SO 5.3 mph 11 mph 64.7% 0 in
05:19 53.2 °F 41.4 °F 30 in SO 5.4 mph 11 mph 64% 0 in
05:24 53.2 °F 41.4 °F 30 in SO 5.4 mph 11.2 mph 64% 0 in
05:29 53.2 °F 41.4 °F 30 in SO 5.4 mph 12 mph 64% 0 in
05:34 53.2 °F 41.4 °F 30 in SO 5.4 mph 12.5 mph 64% 0 in
05:39 53.2 °F 41.2 °F 30 in OSO 5.4 mph 13 mph 63.3% 0 in
05:44 53.2 °F 41 °F 30 in SO 5.8 mph 13 mph 63% 0 in
05:49 53.2 °F 41 °F 30 in SO 6.2 mph 13 mph 63% 0 in
05:54 53.2 °F 41 °F 30 in SSO 5.7 mph 8.1 mph 63% 0 in
05:59 53.1 °F 40.8 °F 30 in SSO 5.2 mph 8.5 mph 63% 0 in
06:04 53.1 °F 41 °F 30 in Sur 4.7 mph 9.2 mph 63.6% 0 in
06:09 52.7 °F 41 °F 30 in Sur 4.3 mph 9 mph 64.5% 0 in
06:14 52.3 °F 41 °F 30 in Sur 4 mph 6.2 mph 65.2% 0 in
06:19 52.2 °F 41 °F 30 in Sur 3.6 mph 6.2 mph 66% 0 in
06:24 51.6 °F 41 °F 30 in Sur 3.9 mph 7.4 mph 66.7% 0 in
06:29 51.4 °F 41 °F 30 in Sur 4.3 mph 9.2 mph 67.5% 0 in
06:34 51.1 °F 41 °F 30 in SSO 4.8 mph 9.2 mph 68% 0 in
06:39 51.1 °F 40.8 °F 30 in SSO 5.4 mph 9.2 mph 68% 0 in
06:44 51.1 °F 40.8 °F 30 in SSO 5.7 mph 9.2 mph 68% 0 in
06:49 51.3 °F 41.2 °F 30 in SSO 5.9 mph 10.4 mph 68% 0 in
06:54 51.3 °F 41.2 °F 30 in SSO 6.2 mph 10.4 mph 68% 0 in
06:59 51.3 °F 40.8 °F 30 in SSO 6.4 mph 10.4 mph 67.3% 0 in
07:04 51.3 °F 40.8 °F 30 in SO 6.4 mph 12.5 mph 67% 0 in
07:09 51.4 °F 40.8 °F 30 in SO 6.4 mph 13 mph 67% 0 in
07:14 51.4 °F 40.8 °F 30 in SSO 5.9 mph 10.4 mph 67% 0 in
07:19 51.4 °F 40.8 °F 30 in SSO 5.4 mph 10.4 mph 67% 0 in
07:24 51.4 °F 40.8 °F 30 in SSO 5.9 mph 10.4 mph 67% 0 in
07:29 51.3 °F 40.6 °F 30 in SSO 6.4 mph 10.2 mph 67% 0 in
07:34 51.4 °F 40.8 °F 30 in SSO 6.4 mph 10.4 mph 67% 0 in
07:39 51.4 °F 40.5 °F 30 in SSO 6.4 mph 10 mph 66% 0 in
07:44 51.4 °F 40.5 °F 30 in Sur 6.3 mph 9.2 mph 66.2% 0 in
07:49 50.9 °F 40.5 °F 30 in SSO 6.2 mph 12.7 mph 67.5% 0 in
07:54 50.4 °F 40.5 °F 30 in SSO 6.8 mph 13 mph 68.8% 0 in
07:59 49.8 °F 40.3 °F 30 in SSO 7.4 mph 12 mph 69.6% 0 in
08:04 49.8 °F 40.5 °F 30 in SSO 6.8 mph 12 mph 70% 0 in
08:09 49.8 °F 40.5 °F 30 in SSO 6.4 mph 12.7 mph 70% 0 in
08:14 50 °F 40.3 °F 30 in SSO 7 mph 13.8 mph 69.2% 0 in
08:19 50.2 °F 40.5 °F 30 in SO 7.6 mph 14 mph 69% 0 in
08:24 50.4 °F 40.3 °F 30 in SSO 7.6 mph 12.3 mph 68% 0 in
08:29 50.4 °F 40.5 °F 30 in SSO 7.6 mph 13 mph 68.7% 0 in
08:34 50.4 °F 40.1 °F 30 in SSO 7.3 mph 12 mph 68% 0 in
08:39 50.4 °F 40.3 °F 30 in SSO 6.9 mph 12 mph 68% 0 in
08:44 50.4 °F 40.3 °F 30 in SSO 7.1 mph 11.4 mph 68% 0 in
08:49 50.4 °F 40.3 °F 30 in SSO 7.4 mph 15 mph 68% 0 in
08:54 50.5 °F 40.5 °F 30 in SO 7.1 mph 15 mph 68% 0 in
08:59 50.7 °F 40.3 °F 30 in SSO 6.9 mph 13 mph 67.4% 0 in
09:04 50.9 °F 40.3 °F 30 in SSO 7.3 mph 13.8 mph 67% 0 in
09:09 51.1 °F 40.5 °F 30 in SSO 7.6 mph 14 mph 66.9% 0 in
09:14 51.3 °F 40.3 °F 30 in SSO 7.6 mph 13 mph 66% 0 in
09:19 51.3 °F 40.3 °F 30 in SSO 7.6 mph 14 mph 66% 0 in
09:24 51.3 °F 40.3 °F 30 in SSO 7.6 mph 16.1 mph 66% 0 in
09:29 51.3 °F 40.3 °F 30 in SO 7.6 mph 16 mph 66% 0 in
09:34 51.3 °F 40.3 °F 30 in SSO 7.3 mph 15 mph 66% 0 in
09:39 51.3 °F 40.5 °F 30.1 in SO 6.9 mph 15.2 mph 66% 0 in
09:44 51.4 °F 40.1 °F 30.1 in SO 7.5 mph 15 mph 65.1% 0 in
09:49 51.6 °F 40.3 °F 30.1 in SO 8.1 mph 14 mph 65% 0 in
09:54 51.8 °F 40.1 °F 30.1 in SSO 7.8 mph 12 mph 64.3% 0 in
09:59 52.2 °F 40.3 °F 30.1 in SSO 7.4 mph 12 mph 64% 0 in
10:04 52.3 °F 40.1 °F 30.1 in SSO 6.8 mph 12.7 mph 62.7% 0 in
10:09 52.9 °F 40.1 °F 30.1 in SSO 6.4 mph 14 mph 61.9% 0 in
10:14 53.1 °F 40.1 °F 30.1 in SO 6.9 mph 14 mph 61% 0 in
10:19 53.4 °F 40.3 °F 30.1 in SO 7.4 mph 14 mph 61% 0 in
10:24 53.6 °F 40.3 °F 30.1 in SO 6.9 mph 14 mph 60.5% 0 in
10:29 54 °F 40.3 °F 30.1 in OSO 6.4 mph 13 mph 60% 0 in
10:34 54.1 °F 40.3 °F 30.1 in SO 6.4 mph 15 mph 59.4% 0 in
10:39 54.5 °F 40.1 °F 30.1 in SO 6.4 mph 17.3 mph 58.3% 0 in
10:44 54.9 °F 39.9 °F 30.1 in OSO 8.6 mph 20.7 mph 57.4% 0 in
10:49 55 °F 39.9 °F 30.1 in OSO 10.7 mph 21 mph 56.8% 0 in
10:54 55.2 °F 39.7 °F 30.1 in SO 11.5 mph 21 mph 56% 0 in
10:59 55.2 °F 40.1 °F 30.1 in SO 12.3 mph 19 mph 56.5% 0 in
11:04 55.4 °F 40.3 °F 30.1 in SSO 10.9 mph 16.1 mph 56.5% 0 in
11:09 55.6 °F 40.1 °F 30.1 in SO 9.7 mph 16.3 mph 56% 0 in
11:14 55.9 °F 40.3 °F 30.1 in SO 9.4 mph 16.1 mph 55.8% 0 in
11:19 56.1 °F 39.9 °F 30.1 in SO 9.2 mph 16.1 mph 54.4% 0 in
11:24 56.5 °F 39.7 °F 30.1 in SO 8.8 mph 16.1 mph 53.5% 0 in
11:29 56.7 °F 39.7 °F 30.1 in SO 8.5 mph 16 mph 53% 0 in
11:34 57 °F 39.9 °F 30.1 in SO 8 mph 15 mph 52.5% 0 in
11:39 57.4 °F 39.6 °F 30.1 in OSO 7.6 mph 15 mph 51.3% 0 in
11:44 57.7 °F 39.7 °F 30.1 in SO 8.1 mph 15 mph 51% 0 in
11:49 57.9 °F 39.7 °F 30.1 in OSO 8.7 mph 14 mph 50.8% 0 in
11:54 58.1 °F 39.6 °F 30.1 in OSO 8.4 mph 17.3 mph 50.1% 0 in
11:59 58.3 °F 39.6 °F 30.1 in OSO 8.1 mph 17 mph 49.8% 0 in
12:04 58.5 °F 39.2 °F 30.1 in OSO 9.1 mph 19.6 mph 48.7% 0 in
12:09 58.5 °F 38.8 °F 30.1 in Oeste 10 mph 20 mph 48% 0 in
12:14 58.6 °F 39 °F 30.1 in Oeste 10.9 mph 19 mph 48.1% 0 in
12:19 58.8 °F 39 °F 30.1 in Oeste 11.8 mph 18 mph 47.7% 0 in
12:24 59 °F 39 °F 30.1 in Oeste 10.7 mph 21.5 mph 47.5% 0 in
12:29 58.8 °F 38.8 °F 30.1 in OSO 9.7 mph 22 mph 47.1% 0 in
12:34 59.2 °F 38.8 °F 30.1 in Oeste 10.4 mph 22.3 mph 47% 0 in
12:39 59 °F 39 °F 30.1 in Oeste 11.2 mph 22 mph 47.4% 0 in
12:44 59.4 °F 39.2 °F 30.1 in Oeste 11.2 mph 21 mph 47.2% 0 in
12:49 59.4 °F 39 °F 30.1 in OSO 11.2 mph 20.7 mph 47% 0 in
12:54 59.4 °F 39.4 °F 30.1 in Oeste 11 mph 21 mph 47.5% 0 in
12:59 59.4 °F 39.4 °F 30.1 in Oeste 10.7 mph 22.3 mph 47.5% 0 in
13:04 59.5 °F 39.4 °F 30.1 in Oeste 10.7 mph 22 mph 47.4% 0 in
13:09 59.5 °F 39.4 °F 30.1 in OSO 10.7 mph 20.8 mph 47.3% 0 in
13:14 59.5 °F 39.4 °F 30.1 in Oeste 10.9 mph 21 mph 47.2% 0 in
13:19 59.7 °F 39.4 °F 30.1 in Oeste 11.2 mph 21 mph 47% 0 in
13:24 60.1 °F 39.7 °F 30.1 in Oeste 10.4 mph 19 mph 47% 0 in
13:29 60.1 °F 39.6 °F 30 in Oeste 9.7 mph 20.7 mph 46.7% 0 in
13:34 60.3 °F 39.2 °F 30 in Oeste 10.5 mph 21 mph 46% 0 in
13:39 60.3 °F 39.4 °F 30 in Oeste 11.2 mph 21 mph 46% 0 in
13:44 60.4 °F 39.4 °F 30 in OSO 10.9 mph 21.3 mph 45.7% 0 in
13:49 60.6 °F 39.4 °F 30 in Oeste 10.7 mph 21 mph 45.3% 0 in
13:54 60.8 °F 39.4 °F 30 in ONO 10.4 mph 26.1 mph 45% 0 in
13:59 61 °F 39.4 °F 30 in Oeste 10.2 mph 26.5 mph 45% 0 in
14:04 61 °F 39 °F 30 in Oeste 11.1 mph 21.9 mph 44.3% 0 in
14:09 61 °F 38.8 °F 30 in Oeste 11.8 mph 22 mph 44% 0 in
14:14 61.2 °F 39 °F 30 in OSO 12.1 mph 21 mph 44% 0 in
14:19 61.2 °F 39.2 °F 30 in Oeste 12.3 mph 17.5 mph 44% 0 in
14:24 61.2 °F 39 °F 30 in OSO 11.1 mph 17 mph 44% 0 in
14:29 61.2 °F 39 °F 30 in OSO 10 mph 16 mph 43.8% 0 in
14:34 61.3 °F 38.8 °F 30 in Oeste 8.4 mph 16.1 mph 43.4% 0 in
14:39 61.3 °F 39 °F 30 in OSO 6.9 mph 16.1 mph 43.5% 0 in
14:44 61.7 °F 38.5 °F 30 in OSO 7.5 mph 18.4 mph 42.3% 0 in
14:49 61.7 °F 38.5 °F 30 in OSO 8.1 mph 18 mph 42% 0 in
14:54 61.9 °F 38.1 °F 30 in OSO 8.3 mph 15 mph 41.3% 0 in
14:59 62.1 °F 38.3 °F 30 in Oeste 8.5 mph 14 mph 41.4% 0 in
15:04 62.1 °F 37.6 °F 30 in Oeste 8 mph 14 mph 40.4% 0 in
15:09 62.1 °F 37.4 °F 30 in Oeste 7.6 mph 17.3 mph 40% 0 in
15:14 62.1 °F 36.7 °F 30 in ONO 8.7 mph 17.3 mph 38.9% 0 in
15:19 62.1 °F 36.7 °F 30 in Oeste 9.7 mph 17 mph 38.9% 0 in
15:24 62.2 °F 37 °F 30 in OSO 8.9 mph 15 mph 39% 0 in
15:29 62.4 °F 36.9 °F 30 in OSO 8.1 mph 12 mph 38.6% 0 in
15:34 62.4 °F 36.5 °F 30 in OSO 7.2 mph 12 mph 38% 0 in
15:39 62.4 °F 36.3 °F 30 in Oeste 6.4 mph 12.7 mph 37.8% 0 in
15:44 62.2 °F 35.8 °F 30 in ONO 6.6 mph 13 mph 37% 0 in
15:49 62.2 °F 35.6 °F 30 in Oeste 6.9 mph 12 mph 37% 0 in
15:54 62.4 °F 35.4 °F 30 in Oeste 6.9 mph 15.2 mph 36.4% 0 in
15:59 62.4 °F 35.6 °F 30 in Oeste 6.9 mph 15 mph 36.6% 0 in
16:04 62.4 °F 35.4 °F 30 in Oeste 7.1 mph 15 mph 36.5% 0 in
16:09 62.4 °F 35.2 °F 30 in ONO 7.4 mph 10 mph 36.2% 0 in
16:14 62.4 °F 35.1 °F 30 in ONO 6.8 mph 11.5 mph 36% 0 in
16:19 62.4 °F 35.1 °F 30 in Oeste 6.2 mph 12 mph 36% 0 in
16:24 62.4 °F 34.3 °F 30 in Oeste 6 mph 9 mph 35% 0 in
16:29 62.6 °F 34.5 °F 30 in ONO 5.9 mph 9.2 mph 35% 0 in
16:34 62.6 °F 34.5 °F 30 in ONO 5.1 mph 9 mph 35% 0 in
16:39 62.8 °F 35.1 °F 30 in ONO 4.3 mph 6 mph 35.5% 0 in
16:44 63.1 °F 34.9 °F 30 in SO 3.7 mph 7.4 mph 35% 0 in
16:49 63.1 °F 34.5 °F 30 in OSO 3.1 mph 7 mph 34.3% 0 in
16:54 63.1 °F 34 °F 30 in SO 3.4 mph 7 mph 33.6% 0 in
16:59 63.1 °F 34.2 °F 30 in OSO 3.6 mph 7 mph 33.8% 0 in
17:04 63.1 °F 34.3 °F 30 in OSO 3.3 mph 5.9 mph 34% 0 in
17:09 63.1 °F 34.3 °F 30 in Oeste 3.1 mph 6 mph 34% 0 in
17:14 63.1 °F 34.3 °F 30 in Oeste 3.1 mph 6 mph 34% 0 in
17:19 63.1 °F 34.3 °F 30 in OSO 3.1 mph 5.2 mph 34.2% 0 in
17:24 63 °F 34.3 °F 30 in OSO 2.7 mph 5.2 mph 34.4% 0 in
17:29 62.4 °F 33.8 °F 30 in OSO 2.4 mph 5.8 mph 34% 0 in
17:34 62.2 °F 34.2 °F 30 in OSO 2.7 mph 6 mph 34.9% 0 in
17:39 62.1 °F 33.8 °F 30 in OSO 2.9 mph 5 mph 34.6% 0 in
17:44 61.9 °F 33.8 °F 30 in OSO 2.6 mph 5 mph 35% 0 in
17:49 61.5 °F 33.6 °F 30 in OSO 2.4 mph 3.5 mph 35.1% 0 in
17:54 61.3 °F 33.4 °F 30 in OSO 1.9 mph 3 mph 35% 0 in
17:59 61.3 °F 33.4 °F 30 in SO 1.4 mph 4.7 mph 35.2% 0 in
18:04 61 °F 35.6 °F 30 in SE 1.9 mph 6.4 mph 38.9% 0 in
18:09 60.1 °F 36.5 °F 30 in SSE 2.4 mph 7 mph 41.4% 0 in
18:14 59.4 °F 36.9 °F 30 in SE 3 mph 6 mph 42.8% 0 in
18:19 58.6 °F 36.7 °F 30 in SE 3.6 mph 6.2 mph 44% 0 in
18:24 57.9 °F 36.9 °F 30 in SE 3.9 mph 6 mph 45.5% 0 in
18:29 57.4 °F 37.2 °F 30 in SE 4.3 mph 6.2 mph 46.6% 0 in
18:34 57 °F 37 °F 30 in SE 4.2 mph 6.2 mph 47% 0 in
18:39 56.7 °F 37.2 °F 30.1 in SSE 4 mph 6 mph 47.8% 0 in
18:44 56.7 °F 37 °F 30.1 in SE 4 mph 6 mph 48% 0 in
18:49 56.5 °F 37 °F 30.1 in SE 4 mph 6 mph 48.2% 0 in
18:54 56.1 °F 37.2 °F 30.1 in SE 4 mph 6 mph 49% 0 in
18:59 55.9 °F 37.4 °F 30 in SSE 4 mph 6 mph 49.6% 0 in
19:04 55.8 °F 37.4 °F 30 in SSE 3.8 mph 6 mph 50% 0 in
19:09 55.8 °F 37.6 °F 30.1 in SSE 3.6 mph 5.2 mph 50.6% 0 in
19:14 55.4 °F 37.8 °F 30.1 in Sur 3.4 mph 8.1 mph 51.3% 0 in
19:19 55.2 °F 37.8 °F 30.1 in SSO 3.1 mph 8 mph 51.8% 0 in
19:24 55.2 °F 38.5 °F 30.1 in SSO 3.7 mph 10.4 mph 53.2% 0 in
19:29 55.4 °F 39.2 °F 30.1 in SSO 4.3 mph 11.8 mph 54.5% 0 in
19:34 55.2 °F 39.7 °F 30.1 in SSO 5.7 mph 12 mph 55.6% 0 in
19:39 55.2 °F 40.1 °F 30.1 in SSO 6.9 mph 14 mph 57% 0 in
19:44 55 °F 40.5 °F 30.1 in SO 7.3 mph 14 mph 57.9% 0 in
19:49 54.9 °F 40.6 °F 30.1 in SO 7.6 mph 12 mph 58.4% 0 in
19:54 54.9 °F 41 °F 30.1 in SO 6.5 mph 10.2 mph 59.4% 0 in
19:59 54.7 °F 41.2 °F 30.1 in SO 5.4 mph 10 mph 60.4% 0 in
20:04 54.3 °F 41.5 °F 30.1 in SO 5 mph 9 mph 61.6% 0 in
20:09 54.3 °F 42.1 °F 30.1 in SO 4.7 mph 11.8 mph 63% 0 in
20:14 54.3 °F 42.4 °F 30.1 in SSO 5 mph 12 mph 64% 0 in
20:19 54.3 °F 42.6 °F 30.1 in Sur 5.2 mph 8 mph 64.9% 0 in
20:24 54.1 °F 42.3 °F 30.1 in SSE 4.4 mph 7 mph 64% 0 in
20:29 54 °F 42.4 °F 30.1 in SSO 3.6 mph 5.9 mph 64.9% 0 in
20:34 54 °F 43 °F 30.1 in SSO 3.6 mph 7.4 mph 66.2% 0 in
20:39 53.8 °F 43.2 °F 30.1 in SSO 3.6 mph 7 mph 67% 0 in
20:44 53.6 °F 43.3 °F 30.1 in SSO 4 mph 6.9 mph 67.9% 0 in
20:49 53.4 °F 43.2 °F 30.1 in SSO 4.3 mph 7.4 mph 68% 0 in
20:54 53.2 °F 43.3 °F 30.1 in SSO 4.5 mph 7 mph 69% 0 in
20:59 53.2 °F 43.3 °F 30.1 in SSO 4.7 mph 7.6 mph 69% 0 in
21:04 53.1 °F 43.5 °F 30.1 in Sur 4.7 mph 8 mph 69.8% 0 in
21:09 53.1 °F 43.5 °F 30.1 in SSO 4.7 mph 7 mph 70% 0 in
21:14 53.1 °F 43.7 °F 30.1 in SSO 4.5 mph 8.1 mph 70.9% 0 in
21:19 52.9 °F 43.9 °F 30.1 in SO 4.3 mph 8.5 mph 71.4% 0 in
21:24 52.9 °F 44.1 °F 30.1 in SO 4.5 mph 9 mph 72% 0 in
21:29 52.7 °F 44.1 °F 30.1 in SO 4.7 mph 7 mph 72.5% 0 in
21:34 52.5 °F 44.1 °F 30.1 in SO 3.9 mph 6 mph 73% 0 in
21:39 52.5 °F 44.1 °F 30.1 in OSO 3.1 mph 5 mph 73% 0 in
21:44 52.5 °F 44.4 °F 30.1 in SO 2.7 mph 5 mph 73.7% 0 in
21:49 52.3 °F 44.4 °F 30.1 in OSO 2.4 mph 7.6 mph 74% 0 in
21:54 52.5 °F 44.8 °F 30.1 in SO 3.2 mph 9.7 mph 74.9% 0 in
21:59 52.5 °F 44.8 °F 30.1 in SO 4 mph 10 mph 75% 0 in
22:04 52.3 °F 44.6 °F 30.1 in SSO 4 mph 7 mph 75% 0 in
22:09 52.3 °F 44.4 °F 30.1 in SSO 4 mph 6 mph 74.1% 0 in
22:14 52.2 °F 44.2 °F 30.1 in SSO 3.5 mph 6.4 mph 74.3% 0 in
22:19 52.2 °F 44.4 °F 30.1 in SSE 3.1 mph 7 mph 75% 0 in
22:24 51.8 °F 44.2 °F 30.1 in Sur 3.7 mph 7.4 mph 75.3% 0 in
22:29 51.4 °F 44.1 °F 30.1 in SSO 4.3 mph 8.1 mph 76% 0 in
22:34 51.3 °F 44.2 °F 30.1 in Sur 4.3 mph 8 mph 76.8% 0 in
22:39 51.3 °F 44.2 °F 30.1 in Sur 4.3 mph 7.4 mph 77% 0 in
22:44 51.1 °F 44.2 °F 30.1 in Sur 4.3 mph 7 mph 77.1% 0 in
22:49 51.1 °F 44.2 °F 30.1 in SSE 4.3 mph 6 mph 77.6% 0 in
22:54 50.7 °F 44.1 °F 30.1 in SSE 4 mph 5.9 mph 77.9% 0 in
22:59 50.4 °F 44.1 °F 30.1 in SSO 3.6 mph 7.4 mph 78.6% 0 in
23:04 50.4 °F 44.1 °F 30.1 in SSO 3.8 mph 7.4 mph 79% 0 in
23:09 50.5 °F 44.2 °F 30.1 in SSO 4 mph 7 mph 79% 0 in
23:14 50.5 °F 44.2 °F 30.1 in SSO 4.2 mph 7 mph 79% 0 in
23:19 50.5 °F 44.2 °F 30.1 in SSO 4.3 mph 6 mph 79% 0 in
23:24 50.4 °F 43.9 °F 30.1 in SSO 4 mph 5 mph 78% 0 in
23:29 50.4 °F 43.9 °F 30.1 in SO 3.6 mph 5 mph 78% 0 in
23:34 50.4 °F 43.9 °F 30.1 in SO 3.2 mph 5 mph 78% 0 in
23:39 50.4 °F 43.7 °F 30.1 in SSO 2.9 mph 5 mph 78% 0 in
23:44 50.2 °F 43.5 °F 30.1 in SSO 2.9 mph 5 mph 78% 0 in
23:49 50 °F 43.3 °F 30.1 in Sur 2.9 mph 5.2 mph 78% 0 in
23:54 49.8 °F 43.2 °F 30.1 in Sur 3 mph 5.9 mph 78% 0 in
23:59 49.6 °F 43.2 °F 30.1 in SSO 3.1 mph 6.9 mph 78% 0 in
Murcia-Puente Tocinos, Espa?a
Compliments of Weather Underground - 3.25 mb

La estación de MeteoMurcia.com, publica sus datos en los siguientes proyectos:

Weather Underground PWS IMURCIAP2 Meteoclimatic www.awekas.at

W3Counter
Web Analytics